Time;durP1;ratioP1;P1;durP2;ratioP2;P2;SDS_P1;SDS_P2;PMS_P1;PMS_P2;Temp;Humidity;BMP_temperature;BMP_pressure;BME280_temperature;BME280_humidity;BME280_pressure;Samples;Min_cycle;Max_cycle;Signal;HPM_P1;HPM_P2
2021/12/04 00:01:48;;;;;;;5.50;3.43;;;;;;;;;;4419857;32;20257;-60
2021/12/04 00:04:19;;;;;;;5.63;2.97;;;;;;;;;;4433774;32;20288;-61
2021/12/04 00:06:45;;;;;;;4.83;2.00;;;;;;;;;;4433284;32;20865;-60
2021/12/04 00:09:11;;;;;;;3.13;2.00;;;;;;;;;;4429635;32;20259;-60
2021/12/04 00:11:40;;;;;;;7.33;1.90;;;;;;;;;;4449025;32;20220;-61
2021/12/04 00:14:06;;;;;;;3.20;1.77;;;;;;;;;;4449300;32;20449;-62
2021/12/04 00:16:32;;;;;;;4.47;2.33;;;;;;;;;;4449028;32;20216;-61
2021/12/04 00:18:58;;;;;;;4.03;2.53;;;;;;;;;;4435133;32;20240;-61
2021/12/04 00:21:23;;;;;;;6.80;2.33;;;;;;;;;;4449511;32;20294;-62
2021/12/04 00:23:48;;;;;;;7.73;1.70;;;;;;;;;;4449220;32;20233;-61
2021/12/04 00:26:14;;;;;;;1.73;1.50;;;;;;;;;;4449024;32;20267;-60
2021/12/04 00:28:39;;;;;;;2.87;1.23;;;;;;;;;;4449013;32;20260;-61
2021/12/04 00:31:08;;;;;;;2.43;1.50;;;;;;;;;;4448930;32;20648;-60
2021/12/04 00:33:36;;;;;;;3.90;1.47;;;;;;;;;;4432599;32;20307;-62
2021/12/04 00:36:07;;;;;;;2.93;1.80;;;;;;;;;;4435345;32;20240;-60
2021/12/04 00:49:18;;;;;;;4.63;1.83;;;;;;;;;;4449357;32;20856;-61
2021/12/04 00:51:50;;;;;;;3.13;1.60;;;;;;;;;;4435268;32;20247;-60
2021/12/04 00:54:16;;;;;;;2.50;1.67;;;;;;;;;;4433921;32;20224;-61
2021/12/04 00:56:43;;;;;;;4.13;2.03;;;;;;;;;;4433914;32;20236;-61
2021/12/04 00:59:09;;;;;;;2.50;1.83;;;;;;;;;;4419582;32;20684;-61
2021/12/04 01:01:38;;;;;;;4.13;2.50;;;;;;;;;;4414330;32;20255;-60
2021/12/04 01:04:04;;;;;;;3.17;1.83;;;;;;;;;;4421532;32;20234;-61
2021/12/04 01:06:30;;;;;;;5.80;1.80;;;;;;;;;;4429127;32;20585;-60
2021/12/04 01:08:55;;;;;;;5.97;2.97;;;;;;;;;;4436482;32;20341;-60
2021/12/04 01:11:21;;;;;;;2.53;1.60;;;;;;;;;;4450731;32;20731;-60
2021/12/04 01:13:47;;;;;;;2.77;1.80;;;;;;;;;;4451814;32;20263;-60
2021/12/04 01:16:14;;;;;;;1.33;1.20;;;;;;;;;;4451768;32;20301;-60
2021/12/04 01:18:40;;;;;;;2.87;2.30;;;;;;;;;;4451620;32;20239;-61
2021/12/04 01:21:05;;;;;;;4.07;2.07;;;;;;;;;;4437411;32;20317;-60
2021/12/04 01:23:31;;;;;;;6.73;2.10;;;;;;;;;;4451542;32;20650;-61
2021/12/04 01:25:56;;;;;;;3.57;1.73;;;;;;;;;;4451631;32;20303;-61
2021/12/04 01:28:22;;;;;;;3.30;1.57;;;;;;;;;;4451456;32;20292;-59
2021/12/04 01:30:47;;;;;;;4.83;1.77;;;;;;;;;;4451765;32;20675;-61
2021/12/04 01:33:13;;;;;;;3.90;1.77;;;;;;;;;;4451580;32;20259;-61
2021/12/04 01:35:38;;;;;;;3.60;1.73;;;;;;;;;;4451315;32;20363;-61
2021/12/04 01:38:03;;;;;;;4.90;1.47;;;;;;;;;;4451351;32;20220;-61
2021/12/04 01:40:29;;;;;;;1.87;1.50;;;;;;;;;;4451732;32;20291;-60
2021/12/04 01:42:55;;;;;;;3.97;2.10;;;;;;;;;;4451630;32;20630;-60
2021/12/04 01:45:20;;;;;;;3.57;2.20;;;;;;;;;;4451922;32;20275;-60
2021/12/04 01:47:46;;;;;;;4.93;3.27;;;;;;;;;;4451428;32;20313;-60
2021/12/04 01:50:12;;;;;;;5.10;3.07;;;;;;;;;;4447781;32;20666;-61
2021/12/04 01:52:37;;;;;;;5.10;2.43;;;;;;;;;;4435809;32;20217;-61
2021/12/04 01:55:04;;;;;;;8.17;2.77;;;;;;;;;;4436318;32;20348;-61
2021/12/04 01:57:31;;;;;;;6.33;3.27;;;;;;;;;;4419816;32;20237;-61
2021/12/04 01:59:57;;;;;;;8.73;5.77;;;;;;;;;;4420310;32;20342;-61
2021/12/04 02:02:22;;;;;;;27.10;14.67;;;;;;;;;;4427968;32;20594;-61
2021/12/04 02:04:48;;;;;;;10.20;5.87;;;;;;;;;;4435894;32;20240;-60
2021/12/04 02:07:15;;;;;;;12.03;4.87;;;;;;;;;;4435830;32;20239;-60
2021/12/04 02:09:40;;;;;;;4.80;3.50;;;;;;;;;;4424258;32;20241;-61
2021/12/04 02:12:07;;;;;;;9.30;2.63;;;;;;;;;;4449921;32;20598;-61
2021/12/04 02:14:35;;;;;;;2.73;1.87;;;;;;;;;;4450960;32;20290;-61
2021/12/04 02:17:01;;;;;;;4.93;1.77;;;;;;;;;;4451091;32;20577;-60
2021/12/04 02:19:27;;;;;;;3.47;1.63;;;;;;;;;;4450672;32;20338;-60
2021/12/04 02:21:52;;;;;;;1.60;1.50;;;;;;;;;;4450609;32;20259;-60
2021/12/04 02:24:18;;;;;;;5.97;2.53;;;;;;;;;;4436800;32;20279;-60
2021/12/04 02:26:46;;;;;;;3.33;2.03;;;;;;;;;;4450658;32;20568;-59
2021/12/04 02:29:12;;;;;;;3.00;1.80;;;;;;;;;;4450961;32;20435;-60
2021/12/04 02:31:39;;;;;;;2.13;1.67;;;;;;;;;;4436579;32;20244;-60
2021/12/04 02:34:05;;;;;;;3.13;1.83;;;;;;;;;;4437030;32;20323;-61
2021/12/04 02:36:30;;;;;;;1.50;1.37;;;;;;;;;;4436545;32;20236;-60
2021/12/04 02:38:56;;;;;;;2.83;1.87;;;;;;;;;;4449738;32;20322;-60
2021/12/04 02:41:23;;;;;;;1.80;1.50;;;;;;;;;;4436485;32;20537;-60
2021/12/04 02:43:49;;;;;;;2.20;1.50;;;;;;;;;;4450675;32;20271;-60
2021/12/04 02:46:15;;;;;;;2.30;1.57;;;;;;;;;;4450510;32;20272;-61
2021/12/04 02:48:43;;;;;;;2.87;1.73;;;;;;;;;;4450634;32;20255;-60
2021/12/04 02:51:09;;;;;;;2.33;1.87;;;;;;;;;;4440920;32;20263;-60
2021/12/04 02:53:34;;;;;;;3.07;1.90;;;;;;;;;;4434784;32;20228;-61
2021/12/04 02:56:00;;;;;;;3.83;1.77;;;;;;;;;;4435245;32;20318;-60
2021/12/04 02:58:26;;;;;;;1.80;1.67;;;;;;;;;;4420973;32;20368;-61
2021/12/04 03:00:51;;;;;;;5.20;2.37;;;;;;;;;;4421035;32;20312;-62
2021/12/04 03:03:19;;;;;;;3.43;1.50;;;;;;;;;;4435002;32;20262;-61
2021/12/04 03:05:49;;;;;;;2.50;1.87;;;;;;;;;;4420717;32;20233;-61
2021/12/04 03:08:16;;;;;;;2.57;1.97;;;;;;;;;;4434777;32;20229;-61
2021/12/04 03:10:42;;;;;;;3.70;2.17;;;;;;;;;;4423160;32;20264;-61
2021/12/04 03:13:09;;;;;;;9.37;2.07;;;;;;;;;;4450365;32;20320;-60
2021/12/04 03:15:38;;;;;;;3.03;2.33;;;;;;;;;;4450168;32;20566;-60
2021/12/04 03:18:04;;;;;;;5.23;3.10;;;;;;;;;;4450016;32;20244;-60
2021/12/04 03:20:31;;;;;;;3.40;2.30;;;;;;;;;;4423327;32;20270;-61
2021/12/04 03:23:00;;;;;;;2.67;2.20;;;;;;;;;;4450297;32;20258;-61
2021/12/04 03:25:26;;;;;;;2.60;1.90;;;;;;;;;;4450064;32;20306;-60
2021/12/04 03:27:52;;;;;;;1.87;1.57;;;;;;;;;;4449885;32;20351;-60
2021/12/04 03:30:32;;;;;;;1.40;1.30;;;;;;;;;;4448233;32;20308;-60
2021/12/04 03:41:06;;;;;;;2.93;1.87;;;;;;;;;;4450015;32;20226;-60
2021/12/04 03:43:32;;;;;;;1.63;1.27;;;;;;;;;;4435964;32;20686;-60
2021/12/04 03:46:00;;;;;;;1.87;1.50;;;;;;;;;;4449829;32;20358;-61
2021/12/04 03:51:01;;;;;;;2.17;1.67;;;;;;;;;;4441086;32;20545;-60
2021/12/04 03:53:27;;;;;;;5.30;1.67;;;;;;;;;;4420041;32;20333;-61
2021/12/04 03:55:52;;;;;;;8.33;2.33;;;;;;;;;;4419336;32;20292;-60
2021/12/04 03:58:19;;;;;;;10.67;2.50;;;;;;;;;;4418859;32;20291;-60
2021/12/04 04:00:45;;;;;;;3.50;2.00;;;;;;;;;;4418775;32;20281;-62
2021/12/04 04:03:10;;;;;;;1.90;1.30;;;;;;;;;;4431939;32;20244;-60
2021/12/04 04:05:36;;;;;;;2.13;1.80;;;;;;;;;;4419852;32;20382;-60
2021/12/04 04:08:01;;;;;;;3.77;2.23;;;;;;;;;;4434222;32;20568;-61
2021/12/04 04:10:27;;;;;;;3.07;1.40;;;;;;;;;;4441481;32;20359;-63
2021/12/04 04:12:53;;;;;;;4.97;2.23;;;;;;;;;;4429122;32;20715;-62
2021/12/04 04:15:20;;;;;;;2.23;1.67;;;;;;;;;;4432317;32;20327;-62
2021/12/04 04:17:46;;;;;;;3.77;2.07;;;;;;;;;;4433691;32;20341;-61
2021/12/04 04:20:18;;;;;;;2.43;1.90;;;;;;;;;;4433286;32;20340;-61
2021/12/04 04:22:45;;;;;;;2.23;1.70;;;;;;;;;;4433875;32;20242;-60
2021/12/04 04:25:12;;;;;;;2.77;1.60;;;;;;;;;;4434189;32;20249;-60
2021/12/04 04:27:38;;;;;;;3.03;1.57;;;;;;;;;;4418938;32;20313;-60
2021/12/04 04:30:06;;;;;;;2.23;1.60;;;;;;;;;;4433651;32;20405;-60
2021/12/04 04:32:32;;;;;;;1.90;1.50;;;;;;;;;;4433530;32;20259;-60
2021/12/04 04:35:07;;;;;;;5.00;1.30;;;;;;;;;;4433679;32;20341;-61
2021/12/04 05:15:20;;;;;;;11.53;5.57;;;;;;;;;;4440638;32;20295;-60
2021/12/04 05:20:21;;;;;;;21.03;9.77;;;;;;;;;;4428705;32;20236;-61
2021/12/04 05:22:47;;;;;;;11.17;6.20;;;;;;;;;;4404411;32;20686;-61
2021/12/04 05:25:13;;;;;;;9.77;5.47;;;;;;;;;;4417700;32;20331;-61
2021/12/04 05:27:39;;;;;;;6.87;4.20;;;;;;;;;;4417557;32;20295;-62
2021/12/04 05:30:06;;;;;;;10.27;4.87;;;;;;;;;;4417690;32;20684;-61
2021/12/04 05:32:32;;;;;;;16.60;6.07;;;;;;;;;;4418060;32;20324;-60
2021/12/04 05:34:57;;;;;;;11.73;5.83;;;;;;;;;;4416770;32;20393;-60
2021/12/04 05:37:22;;;;;;;8.90;5.17;;;;;;;;;;4416547;32;20640;-60
2021/12/04 05:39:48;;;;;;;6.73;3.70;;;;;;;;;;4416173;32;20248;-60
2021/12/04 05:42:14;;;;;;;3.60;2.30;;;;;;;;;;4415545;32;20244;-61
2021/12/04 05:44:41;;;;;;;8.23;3.93;;;;;;;;;;4401973;32;20249;-59
2021/12/04 05:47:13;;;;;;;4.00;2.77;;;;;;;;;;4415836;32;20634;-59
2021/12/04 05:52:36;;;;;;;12.30;4.20;;;;;;;;;;4416867;32;20376;-59
2021/12/04 05:55:20;;;;;;;18.83;9.37;;;;;;;;;;4419674;32;20205;-60
2021/12/04 05:57:46;;;;;;;10.87;5.70;;;;;;;;;;4419635;32;20279;-59
2021/12/04 06:00:18;;;;;;;18.30;9.30;;;;;;;;;;4420481;32;20276;-60
2021/12/04 06:02:43;;;;;;;13.50;5.70;;;;;;;;;;4430476;32;20247;-59
2021/12/04 06:05:09;;;;;;;4.00;2.57;;;;;;;;;;4421640;32;20295;-61
2021/12/04 06:07:35;;;;;;;6.37;3.50;;;;;;;;;;4421412;32;20316;-60
2021/12/04 06:10:00;;;;;;;10.80;3.70;;;;;;;;;;4441433;32;20656;-61
2021/12/04 06:12:26;;;;;;;13.57;4.67;;;;;;;;;;4451430;32;20272;-60
2021/12/04 06:14:51;;;;;;;9.97;5.27;;;;;;;;;;4451021;32;20236;-61
2021/12/04 06:17:20;;;;;;;9.63;5.07;;;;;;;;;;4435637;32;20213;-60
2021/12/04 06:22:41;;;;;;;6.60;3.43;;;;;;;;;;4435641;32;20501;-61
2021/12/04 06:25:26;;;;;;;6.20;3.73;;;;;;;;;;4435421;32;20255;-59
2021/12/04 06:27:53;;;;;;;13.13;6.73;;;;;;;;;;4435095;32;20834;-60
2021/12/04 06:30:20;;;;;;;6.37;4.27;;;;;;;;;;4433670;32;20599;-61
2021/12/04 06:32:48;;;;;;;10.10;5.47;;;;;;;;;;4419462;32;20324;-60
2021/12/04 06:35:16;;;;;;;10.47;5.93;;;;;;;;;;4419418;32;20672;-61
2021/12/04 06:37:41;;;;;;;11.60;6.97;;;;;;;;;;4418931;32;20233;-61
2021/12/04 06:40:11;;;;;;;11.93;7.80;;;;;;;;;;4433399;32;20330;-61
2021/12/04 06:42:37;;;;;;;18.60;7.37;;;;;;;;;;4432773;32;20291;-61
2021/12/04 06:45:03;;;;;;;9.27;4.63;;;;;;;;;;4419862;32;20329;-61
2021/12/04 06:47:30;;;;;;;13.90;6.90;;;;;;;;;;4434592;32;20259;-60
2021/12/04 06:50:02;;;;;;;16.33;10.13;;;;;;;;;;4434187;32;20287;-60
2021/12/04 06:52:28;;;;;;;19.57;10.13;;;;;;;;;;4432806;32;20239;-60
2021/12/04 06:55:02;;;;;;;19.50;11.97;;;;;;;;;;4420213;32;20370;-60
2021/12/04 06:57:33;;;;;;;13.20;7.57;;;;;;;;;;4419560;32;20220;-61
2021/12/04 06:59:59;;;;;;;19.83;8.27;;;;;;;;;;4418359;32;20225;-61
2021/12/04 07:02:25;;;;;;;11.67;6.93;;;;;;;;;;4427586;32;20766;-60
2021/12/04 07:04:50;;;;;;;14.23;9.07;;;;;;;;;;4434882;32;20695;-59
2021/12/04 07:07:16;;;;;;;31.63;13.57;;;;;;;;;;4435080;32;20292;-60
2021/12/04 07:09:43;;;;;;;13.40;7.87;;;;;;;;;;4438786;32;20237;-60
2021/12/04 07:12:09;;;;;;;12.00;6.50;;;;;;;;;;4448244;32;20216;-60
2021/12/04 07:14:35;;;;;;;15.07;7.20;;;;;;;;;;4450476;32;20239;-60
2021/12/04 07:17:02;;;;;;;9.20;6.53;;;;;;;;;;4437053;32;20270;-60
2021/12/04 07:19:29;;;;;;;10.50;6.80;;;;;;;;;;4434399;32;20571;-60
2021/12/04 07:21:54;;;;;;;8.10;5.83;;;;;;;;;;4433471;32;20312;-60
2021/12/04 07:24:20;;;;;;;10.77;7.10;;;;;;;;;;4420896;32;20608;-60
2021/12/04 07:26:46;;;;;;;11.57;7.37;;;;;;;;;;4434902;32;20266;-61
2021/12/04 07:29:11;;;;;;;10.30;5.77;;;;;;;;;;4420535;32;20264;-60
2021/12/04 07:31:37;;;;;;;9.43;6.63;;;;;;;;;;4420232;32;20244;-61
2021/12/04 07:34:04;;;;;;;13.33;7.00;;;;;;;;;;4434641;32;20295;-61
2021/12/04 07:36:29;;;;;;;17.83;8.70;;;;;;;;;;4434192;32;20268;-61
2021/12/04 07:38:56;;;;;;;12.73;7.07;;;;;;;;;;4434638;32;20564;-60
2021/12/04 07:41:21;;;;;;;12.00;6.90;;;;;;;;;;4434120;32;20291;-59
2021/12/04 07:43:47;;;;;;;15.43;7.20;;;;;;;;;;4434341;32;20232;-61
2021/12/04 07:46:12;;;;;;;15.27;6.90;;;;;;;;;;4420138;32;20664;-60
2021/12/04 07:48:38;;;;;;;19.73;9.67;;;;;;;;;;4419584;32;20337;-61
2021/12/04 07:51:04;;;;;;;43.63;20.97;;;;;;;;;;4419738;32;20315;-59
2021/12/04 07:53:31;;;;;;;13.37;5.37;;;;;;;;;;4432145;32;20529;-60
2021/12/04 07:55:56;;;;;;;8.83;3.03;;;;;;;;;;4418037;32;20381;-61
2021/12/04 07:58:22;;;;;;;18.70;4.87;;;;;;;;;;4432076;32;20654;-60
2021/12/04 08:00:47;;;;;;;4.97;3.53;;;;;;;;;;4432285;32;20383;-60
2021/12/04 08:03:13;;;;;;;6.00;4.40;;;;;;;;;;4432813;32;20248;-60
2021/12/04 08:05:39;;;;;;;6.40;3.87;;;;;;;;;;4434142;32;20313;-60
2021/12/04 08:08:05;;;;;;;5.93;3.07;;;;;;;;;;4429889;32;20295;-60
2021/12/04 08:10:30;;;;;;;12.10;6.30;;;;;;;;;;4418342;32;20296;-61
2021/12/04 08:12:58;;;;;;;11.53;4.87;;;;;;;;;;4429166;32;20290;-61
2021/12/04 08:15:23;;;;;;;10.53;4.00;;;;;;;;;;4433872;32;20241;-59
2021/12/04 08:17:49;;;;;;;13.40;5.53;;;;;;;;;;4433052;32;20240;-60
2021/12/04 08:20:16;;;;;;;6.40;3.90;;;;;;;;;;4433399;32;20314;-61
2021/12/04 08:22:42;;;;;;;9.10;3.90;;;;;;;;;;4419774;32;20627;-61
2021/12/04 08:25:09;;;;;;;7.23;3.73;;;;;;;;;;4420196;32;20306;-62
2021/12/04 08:27:35;;;;;;;8.60;4.43;;;;;;;;;;4433370;32;20586;-61
2021/12/04 08:30:04;;;;;;;7.17;4.13;;;;;;;;;;4433863;32;20378;-61
2021/12/04 08:32:30;;;;;;;15.83;5.20;;;;;;;;;;4433720;32;20570;-61
2021/12/04 08:34:56;;;;;;;8.70;4.73;;;;;;;;;;4433595;32;20368;-60
2021/12/04 08:37:22;;;;;;;13.73;6.50;;;;;;;;;;4433821;32;20268;-60
2021/12/04 08:39:49;;;;;;;8.17;5.77;;;;;;;;;;4434108;32;20233;-60
2021/12/04 08:42:15;;;;;;;13.00;7.10;;;;;;;;;;4433600;32;20213;-59
2021/12/04 08:44:41;;;;;;;14.20;8.97;;;;;;;;;;4433947;32;20648;-60
2021/12/04 08:47:06;;;;;;;21.73;11.37;;;;;;;;;;4433516;32;20292;-60
2021/12/04 08:49:33;;;;;;;21.13;11.60;;;;;;;;;;4433676;32;20295;-59
2021/12/04 08:52:00;;;;;;;26.93;13.20;;;;;;;;;;4433535;32;20296;-60
2021/12/04 08:54:26;;;;;;;19.20;8.87;;;;;;;;;;4434022;32;20280;-59
2021/12/04 08:56:52;;;;;;;13.83;7.87;;;;;;;;;;4433426;32;20239;-58
2021/12/04 08:59:17;;;;;;;13.77;9.30;;;;;;;;;;4433820;32;20236;-60
2021/12/04 09:01:44;;;;;;;14.83;8.50;;;;;;;;;;4430799;32;20224;-61
2021/12/04 09:04:15;;;;;;;10.83;5.77;;;;;;;;;;4432434;32;20641;-60
2021/12/04 09:06:41;;;;;;;24.43;9.00;;;;;;;;;;4432985;32;20249;-60
2021/12/04 09:09:09;;;;;;;14.93;7.70;;;;;;;;;;4430175;32;20328;-60
2021/12/04 09:11:43;;;;;;;11.30;5.83;;;;;;;;;;4400958;32;20236;-60
2021/12/04 09:14:10;;;;;;;21.87;6.70;;;;;;;;;;4402459;32;20865;-59
2021/12/04 09:16:36;;;;;;;16.30;9.17;;;;;;;;;;4414787;32;20276;-59
2021/12/04 09:19:03;;;;;;;15.43;9.27;;;;;;;;;;4416602;32;20249;-59
2021/12/04 09:21:29;;;;;;;18.17;8.00;;;;;;;;;;4432674;32;20578;-59
2021/12/04 09:27:09;;;;;;;14.43;8.17;;;;;;;;;;4410956;32;20253;-59
2021/12/04 09:32:53;;;;;;;8.03;4.60;;;;;;;;;;4418941;32;20251;-60
2021/12/04 09:35:44;;;;;;;10.57;5.27;;;;;;;;;;4419049;32;20579;-60
2021/12/04 10:00:42;;;;;;;13.53;5.63;;;;;;;;;;4421410;32;20244;-59
2021/12/04 10:03:37;;;;;;;26.33;8.30;;;;;;;;;;4434622;32;20252;-59
2021/12/04 10:12:16;;;;;;;21.93;8.63;;;;;;;;;;4403740;32;20277;-59
2021/12/04 10:15:11;;;;;;;15.03;7.43;;;;;;;;;;4420492;32;20709;-59
2021/12/04 10:20:43;;;;;;;16.97;9.30;;;;;;;;;;4428279;32;20553;-59
2021/12/04 10:33:50;;;;;;;13.00;5.90;;;;;;;;;;4435104;32;20652;-59
2021/12/04 10:36:26;;;;;;;15.93;7.80;;;;;;;;;;4435585;32;20324;-59
2021/12/04 10:38:52;;;;;;;13.90;6.83;;;;;;;;;;4434937;32;20687;-61
2021/12/04 10:41:17;;;;;;;13.97;6.40;;;;;;;;;;4420894;32;20300;-59
2021/12/04 10:43:43;;;;;;;18.67;7.47;;;;;;;;;;4435305;32;20267;-58
2021/12/04 10:46:14;;;;;;;8.57;6.10;;;;;;;;;;4435275;32;20284;-59
2021/12/04 10:48:49;;;;;;;15.53;8.77;;;;;;;;;;4435248;32;20248;-59
2021/12/04 10:53:51;;;;;;;72.73;28.33;;;;;;;;;;4434758;32;20259;-60
2021/12/04 11:42:59;;;;;;;13.50;6.20;;;;;;;;;;4433967;32;20237;-59
2021/12/04 11:45:32;;;;;;;16.93;8.43;;;;;;;;;;4433994;32;20201;-58
2021/12/04 11:48:05;;;;;;;13.50;5.80;;;;;;;;;;4433487;32;20708;-57
2021/12/04 11:50:33;;;;;;;13.03;7.33;;;;;;;;;;4419630;32;20309;-59
2021/12/04 11:53:05;;;;;;;11.33;6.80;;;;;;;;;;4432396;32;20240;-58
2021/12/04 11:55:36;;;;;;;17.00;7.97;;;;;;;;;;4434179;32;20223;-58
2021/12/04 11:58:03;;;;;;;38.93;17.87;;;;;;;;;;4417340;32;20273;-59
2021/12/04 12:00:35;;;;;;;39.97;17.77;;;;;;;;;;4404557;32;20233;-60
2021/12/04 12:03:09;;;;;;;10.53;6.97;;;;;;;;;;4427944;32;20771;-59
2021/12/04 12:05:44;;;;;;;10.17;5.87;;;;;;;;;;4433236;32;20287;-59
2021/12/04 12:08:21;;;;;;;29.33;15.50;;;;;;;;;;4433875;32;20240;-58
2021/12/04 12:10:50;;;;;;;19.97;8.87;;;;;;;;;;4432438;32;20422;-58
2021/12/04 12:13:24;;;;;;;12.13;6.70;;;;;;;;;;4419195;32;20304;-58
2021/12/04 12:16:12;;;;;;;12.77;7.07;;;;;;;;;;4433540;32;20240;-58
2021/12/04 12:18:57;;;;;;;18.40;8.63;;;;;;;;;;4432847;32;20225;-58
2021/12/04 12:38:51;;;;;;;9.37;5.40;;;;;;;;;;4431001;32;20282;-57
2021/12/04 12:41:25;;;;;;;15.60;7.33;;;;;;;;;;4430070;32;20365;-59
2021/12/04 12:44:01;;;;;;;14.20;6.13;;;;;;;;;;4432594;32;20256;-59
2021/12/04 12:46:37;;;;;;;13.67;6.97;;;;;;;;;;4418714;32;20258;-60
2021/12/04 12:49:15;;;;;;;16.27;8.23;;;;;;;;;;4419853;32;20229;-59
2021/12/04 12:51:44;;;;;;;11.67;6.80;;;;;;;;;;4432300;32;20198;-59
2021/12/04 12:54:21;;;;;;;19.37;9.20;;;;;;;;;;4421972;32;20233;-59
2021/12/04 12:56:47;;;;;;;20.30;9.90;;;;;;;;;;4417597;32;20837;-59
2021/12/04 12:59:32;;;;;;;21.83;10.77;;;;;;;;;;4417212;32;20315;-59
2021/12/04 13:13:23;;;;;;;19.20;6.80;;;;;;;;;;4425135;32;20316;-58
2021/12/04 13:15:48;;;;;;;39.37;20.63;;;;;;;;;;4411693;32;20799;-58
2021/12/04 13:18:23;;;;;;;9.87;6.77;;;;;;;;;;4432469;32;20254;-59
2021/12/04 13:20:51;;;;;;;7.60;5.33;;;;;;;;;;4432248;32;20372;-58
2021/12/04 13:23:22;;;;;;;9.80;5.47;;;;;;;;;;4432546;32;20322;-59
2021/12/04 13:26:00;;;;;;;10.60;5.67;;;;;;;;;;4430780;32;20272;-59
2021/12/04 13:28:31;;;;;;;64.83;28.87;;;;;;;;;;4430470;32;20312;-58
2021/12/04 13:31:00;;;;;;;117.07;46.07;;;;;;;;;;4416934;32;20344;-59
2021/12/04 13:33:26;;;;;;;17.83;10.00;;;;;;;;;;4430706;32;20301;-59
2021/12/04 13:35:52;;;;;;;13.77;7.70;;;;;;;;;;4429200;32;20244;-59
2021/12/04 13:38:21;;;;;;;19.97;7.70;;;;;;;;;;4426481;32;20384;-59
2021/12/04 13:40:49;;;;;;;22.00;12.07;;;;;;;;;;4426231;32;20300;-58
2021/12/04 13:43:16;;;;;;;15.90;8.10;;;;;;;;;;4411518;32;20736;-59
2021/12/04 13:45:43;;;;;;;20.40;12.57;;;;;;;;;;4420923;32;20285;-58
2021/12/04 13:48:09;;;;;;;11.60;7.23;;;;;;;;;;4412033;32;20283;-58
2021/12/04 13:53:13;;;;;;;26.43;10.20;;;;;;;;;;4417299;32;20228;-59
2021/12/04 13:55:41;;;;;;;21.10;8.77;;;;;;;;;;4417633;32;20515;-59
2021/12/04 13:58:07;;;;;;;30.90;16.10;;;;;;;;;;4416139;32;20307;-58
2021/12/04 14:00:33;;;;;;;12.57;8.60;;;;;;;;;;4417235;32;20712;-59
2021/12/04 14:02:59;;;;;;;17.37;9.60;;;;;;;;;;4428962;32;20312;-58
2021/12/04 14:05:26;;;;;;;23.83;11.23;;;;;;;;;;4432880;32;20352;-58
2021/12/04 14:07:54;;;;;;;15.20;9.77;;;;;;;;;;4418675;32;20268;-58
2021/12/04 14:10:32;;;;;;;23.07;8.40;;;;;;;;;;4437693;32;20348;-58
2021/12/04 14:13:02;;;;;;;16.10;8.00;;;;;;;;;;4433780;32;20656;-59
2021/12/04 14:15:28;;;;;;;15.20;8.93;;;;;;;;;;4435174;32;20252;-59
2021/12/04 14:17:58;;;;;;;16.67;7.73;;;;;;;;;;4450543;32;20278;-58
2021/12/04 14:20:24;;;;;;;18.83;8.50;;;;;;;;;;4439641;32;20572;-59
2021/12/04 14:22:53;;;;;;;20.87;7.17;;;;;;;;;;4419916;32;20344;-58
2021/12/04 14:25:20;;;;;;;17.97;8.77;;;;;;;;;;4433987;32;20205;-58
2021/12/04 14:27:47;;;;;;;14.10;8.23;;;;;;;;;;4433025;32;20247;-59
2021/12/04 14:30:16;;;;;;;23.30;9.67;;;;;;;;;;4433420;32;20248;-59
2021/12/04 14:32:44;;;;;;;32.50;17.30;;;;;;;;;;4431490;32;20372;-58
2021/12/04 14:35:16;;;;;;;24.90;8.37;;;;;;;;;;4432234;32;20300;-58
2021/12/04 14:37:48;;;;;;;23.93;10.17;;;;;;;;;;4419092;32;20232;-58
2021/12/04 14:40:21;;;;;;;17.47;8.70;;;;;;;;;;4431839;32;20289;-59
2021/12/04 14:42:54;;;;;;;16.70;10.60;;;;;;;;;;4418272;32;20245;-59
2021/12/04 14:45:26;;;;;;;19.00;11.03;;;;;;;;;;4428526;32;20363;-59
2021/12/04 14:48:07;;;;;;;17.47;11.23;;;;;;;;;;4418566;32;20228;-58
2021/12/04 14:50:36;;;;;;;17.53;10.70;;;;;;;;;;4416977;32;20721;-59
2021/12/04 14:53:05;;;;;;;21.47;12.63;;;;;;;;;;4416794;32;20595;-58
2021/12/04 14:55:34;;;;;;;25.87;14.43;;;;;;;;;;4417217;32;20247;-59
2021/12/04 14:58:04;;;;;;;16.10;10.70;;;;;;;;;;4415071;32;20346;-57
2021/12/04 15:00:36;;;;;;;21.23;11.13;;;;;;;;;;4417713;32;20213;-58
2021/12/04 15:03:24;;;;;;;21.40;12.23;;;;;;;;;;4426684;32;20287;-58
2021/12/04 15:05:55;;;;;;;21.10;10.73;;;;;;;;;;4406441;32;20295;-59
2021/12/04 15:08:27;;;;;;;16.87;10.63;;;;;;;;;;4431272;32;20240;-59
2021/12/04 15:11:11;;;;;;;29.63;11.70;;;;;;;;;;4420929;32;20321;-58
2021/12/04 15:13:49;;;;;;;21.83;10.93;;;;;;;;;;4448028;32;20361;-57
2021/12/04 15:16:17;;;;;;;24.03;12.30;;;;;;;;;;4449959;32;20200;-58
2021/12/04 15:18:43;;;;;;;18.40;9.07;;;;;;;;;;4435374;32;20285;-60
2021/12/04 15:21:15;;;;;;;21.00;12.00;;;;;;;;;;4434405;32;20279;-58
2021/12/04 15:23:45;;;;;;;21.67;12.07;;;;;;;;;;4434066;32;20699;-59
2021/12/04 15:26:19;;;;;;;29.30;15.23;;;;;;;;;;4434145;32;20247;-58
2021/12/04 15:28:49;;;;;;;19.30;12.07;;;;;;;;;;4433822;32;20216;-58
2021/12/04 15:31:17;;;;;;;20.97;12.97;;;;;;;;;;4420913;32;20216;-58
2021/12/04 15:33:47;;;;;;;22.53;13.00;;;;;;;;;;4420353;32;20241;-58
2021/12/04 15:36:45;;;;;;;21.87;14.23;;;;;;;;;;4434603;32;20554;-59
2021/12/04 15:39:29;;;;;;;36.03;18.90;;;;;;;;;;4423115;32;20240;-58
2021/12/04 15:55:08;;;;;;;88.00;45.97;;;;;;;;;;4418609;32;20535;-60
2021/12/04 15:57:35;;;;;;;55.63;32.33;;;;;;;;;;4415653;32;20290;-58
2021/12/04 16:00:11;;;;;;;55.70;31.67;;;;;;;;;;4417789;32;20217;-59
2021/12/04 16:02:44;;;;;;;49.77;28.63;;;;;;;;;;4426066;32;20682;-59
2021/12/04 16:05:19;;;;;;;53.93;32.87;;;;;;;;;;4432456;32;20623;-59
2021/12/04 16:07:48;;;;;;;91.13;48.17;;;;;;;;;;4432064;32;20641;-59
2021/12/04 16:10:21;;;;;;;58.23;28.53;;;;;;;;;;4420862;32;20259;-59
2021/12/04 16:12:53;;;;;;;52.60;24.73;;;;;;;;;;4448751;32;20276;-60
2021/12/04 16:15:22;;;;;;;42.87;23.37;;;;;;;;;;4435238;32;20228;-58
2021/12/04 16:17:47;;;;;;;42.47;22.17;;;;;;;;;;4434491;32;20679;-59
2021/12/04 16:20:16;;;;;;;35.87;18.20;;;;;;;;;;4433074;32;20295;-59
2021/12/04 16:22:42;;;;;;;23.50;14.03;;;;;;;;;;4432862;32;20664;-59
2021/12/04 16:25:15;;;;;;;30.43;16.10;;;;;;;;;;4433019;32;20212;-58
2021/12/04 16:33:15;;;;;;;26.93;14.87;;;;;;;;;;4432372;32;20733;-60
2021/12/04 16:35:54;;;;;;;23.87;14.40;;;;;;;;;;4415489;32;20715;-59
2021/12/04 16:38:21;;;;;;;35.17;21.23;;;;;;;;;;4416745;32;20561;-59
2021/12/04 16:40:47;;;;;;;49.77;25.77;;;;;;;;;;4416134;32;20346;-59
2021/12/04 16:43:29;;;;;;;36.63;22.40;;;;;;;;;;4429159;32;20265;-60
2021/12/04 16:45:56;;;;;;;33.77;17.87;;;;;;;;;;4431460;32;20231;-59
2021/12/04 16:48:26;;;;;;;27.10;14.73;;;;;;;;;;4426968;32;20257;-59
2021/12/04 16:59:12;;;;;;;35.80;20.80;;;;;;;;;;4416959;32;20259;-59
2021/12/04 17:01:44;;;;;;;44.90;25.97;;;;;;;;;;4404528;32;20616;-59
2021/12/04 17:04:12;;;;;;;69.17;36.57;;;;;;;;;;4430272;32;20283;-60
2021/12/04 17:06:39;;;;;;;73.00;39.37;;;;;;;;;;4429755;32;20559;-60
2021/12/04 17:09:06;;;;;;;77.50;40.30;;;;;;;;;;4429950;32;20259;-59
2021/12/04 17:11:32;;;;;;;61.83;35.33;;;;;;;;;;4415456;32;20253;-59
2021/12/04 17:13:57;;;;;;;64.07;34.33;;;;;;;;;;4417554;32;20339;-59
2021/12/04 17:16:27;;;;;;;67.53;35.77;;;;;;;;;;4417258;32;20276;-59
2021/12/04 17:19:00;;;;;;;79.00;42.77;;;;;;;;;;4417869;32;20871;-60
2021/12/04 17:21:26;;;;;;;75.77;40.37;;;;;;;;;;4432902;32;20773;-59
2021/12/04 17:23:52;;;;;;;63.83;38.10;;;;;;;;;;4432450;32;20375;-59
2021/12/04 17:26:18;;;;;;;93.13;44.57;;;;;;;;;;4432740;32;20624;-59
2021/12/04 17:28:45;;;;;;;93.17;48.50;;;;;;;;;;4418751;32;20232;-59
2021/12/04 17:31:16;;;;;;;80.03;43.77;;;;;;;;;;4432427;32;20283;-59
2021/12/04 17:33:46;;;;;;;92.73;48.73;;;;;;;;;;4418620;32;20352;-60
2021/12/04 17:36:13;;;;;;;81.60;44.67;;;;;;;;;;4403546;32;20302;-59
2021/12/04 17:38:44;;;;;;;84.53;48.00;;;;;;;;;;4416963;32;20333;-59
2021/12/04 17:41:11;;;;;;;101.57;52.80;;;;;;;;;;4403403;32;20572;-59
2021/12/04 17:43:38;;;;;;;104.43;51.30;;;;;;;;;;4417021;32;20361;-59
2021/12/04 17:46:04;;;;;;;108.30;58.80;;;;;;;;;;4403244;32;20589;-60
2021/12/04 17:48:31;;;;;;;107.73;55.23;;;;;;;;;;4431305;32;20272;-59
2021/12/04 17:50:58;;;;;;;108.63;56.50;;;;;;;;;;4419943;32;20236;-60
2021/12/04 17:53:24;;;;;;;84.57;45.07;;;;;;;;;;4435286;32;20225;-60
2021/12/04 17:55:49;;;;;;;61.73;29.90;;;;;;;;;;4422569;32;20506;-59
2021/12/04 17:58:15;;;;;;;35.10;19.00;;;;;;;;;;4420918;32;20669;-60
2021/12/04 18:00:47;;;;;;;41.50;23.60;;;;;;;;;;4420207;32;20462;-59
2021/12/04 18:03:15;;;;;;;26.90;14.13;;;;;;;;;;4425504;32;20331;-60
2021/12/04 18:05:41;;;;;;;32.43;16.63;;;;;;;;;;4425024;32;20323;-59
2021/12/04 18:08:10;;;;;;;31.50;16.37;;;;;;;;;;4428853;32;20330;-59
2021/12/04 18:10:37;;;;;;;36.60;18.53;;;;;;;;;;4434515;32;20751;-59
2021/12/04 18:13:06;;;;;;;43.10;24.20;;;;;;;;;;4408460;32;20636;-59
2021/12/04 18:15:37;;;;;;;64.67;29.80;;;;;;;;;;4408638;32;20804;-59
2021/12/04 18:18:03;;;;;;;70.63;39.00;;;;;;;;;;4422641;32;20362;-59
2021/12/04 18:20:29;;;;;;;60.00;32.90;;;;;;;;;;4408503;32;20363;-59
2021/12/04 18:22:55;;;;;;;62.43;35.93;;;;;;;;;;4417943;32;20375;-60